sensor_id;sensor_type;location;lat;lon;timestamp;P1;durP1;ratioP1;P2;durP2;ratioP2
50319;SDS011;36226;53.464;9.852;2022-12-24T00:01:16;20.65;;;9.23;;
50319;SDS011;36226;53.464;9.852;2022-12-24T00:03:42;21.48;;;8.80;;
50319;SDS011;36226;53.464;9.852;2022-12-24T00:06:08;22.65;;;9.45;;
50319;SDS011;36226;53.464;9.852;2022-12-24T00:08:37;22.38;;;9.65;;
50319;SDS011;36226;53.464;9.852;2022-12-24T00:11:02;16.42;;;8.27;;
50319;SDS011;36226;53.464;9.852;2022-12-24T00:13:28;19.75;;;8.55;;
50319;SDS011;36226;53.464;9.852;2022-12-24T00:15:53;22.10;;;8.80;;
50319;SDS011;36226;53.464;9.852;2022-12-24T00:18:19;19.65;;;9.00;;
50319;SDS011;36226;53.464;9.852;2022-12-24T00:20:45;19.55;;;8.52;;
50319;SDS011;36226;53.464;9.852;2022-12-24T00:23:12;19.02;;;8.65;;
50319;SDS011;36226;53.464;9.852;2022-12-24T00:25:37;17.48;;;8.25;;
50319;SDS011;36226;53.464;9.852;2022-12-24T00:28:02;22.10;;;8.73;;
50319;SDS011;36226;53.464;9.852;2022-12-24T00:30:28;17.83;;;7.97;;
50319;SDS011;36226;53.464;9.852;2022-12-24T00:32:53;17.88;;;8.10;;
50319;SDS011;36226;53.464;9.852;2022-12-24T00:35:18;16.33;;;7.20;;
50319;SDS011;36226;53.464;9.852;2022-12-24T00:37:46;17.77;;;7.65;;
50319;SDS011;36226;53.464;9.852;2022-12-24T00:40:12;17.90;;;7.90;;
50319;SDS011;36226;53.464;9.852;2022-12-24T00:42:37;16.48;;;7.53;;
50319;SDS011;36226;53.464;9.852;2022-12-24T00:45:03;14.00;;;7.13;;
50319;SDS011;36226;53.464;9.852;2022-12-24T00:47:28;15.10;;;7.10;;
50319;SDS011;36226;53.464;9.852;2022-12-24T00:49:54;18.52;;;7.65;;
50319;SDS011;36226;53.464;9.852;2022-12-24T00:52:19;16.40;;;7.78;;
50319;SDS011;36226;53.464;9.852;2022-12-24T00:54:45;17.23;;;8.00;;
50319;SDS011;36226;53.464;9.852;2022-12-24T00:57:10;19.23;;;7.93;;
50319;SDS011;36226;53.464;9.852;2022-12-24T00:59:35;16.67;;;7.90;;
50319;SDS011;36226;53.464;9.852;2022-12-24T01:02:01;16.50;;;7.15;;
50319;SDS011;36226;53.464;9.852;2022-12-24T01:04:26;15.18;;;7.78;;
50319;SDS011;36226;53.464;9.852;2022-12-24T01:07:10;19.20;;;8.60;;
50319;SDS011;36226;53.464;9.852;2022-12-24T01:09:35;15.18;;;7.28;;
50319;SDS011;36226;53.464;9.852;2022-12-24T01:12:01;17.13;;;8.05;;
50319;SDS011;36226;53.464;9.852;2022-12-24T01:14:26;17.55;;;8.07;;
50319;SDS011;36226;53.464;9.852;2022-12-24T01:16:51;15.90;;;7.80;;
50319;SDS011;36226;53.464;9.852;2022-12-24T01:19:17;14.55;;;7.35;;
50319;SDS011;36226;53.464;9.852;2022-12-24T01:21:42;14.85;;;7.57;;
50319;SDS011;36226;53.464;9.852;2022-12-24T01:24:12;18.05;;;7.60;;
50319;SDS011;36226;53.464;9.852;2022-12-24T01:26:38;14.73;;;7.40;;
50319;SDS011;36226;53.464;9.852;2022-12-24T01:29:04;19.48;;;7.85;;
50319;SDS011;36226;53.464;9.852;2022-12-24T01:31:29;17.92;;;7.88;;
50319;SDS011;36226;53.464;9.852;2022-12-24T01:33:54;15.70;;;7.05;;
50319;SDS011;36226;53.464;9.852;2022-12-24T01:36:20;16.17;;;7.40;;
50319;SDS011;36226;53.464;9.852;2022-12-24T01:38:45;15.90;;;7.93;;
50319;SDS011;36226;53.464;9.852;2022-12-24T01:41:18;17.85;;;7.90;;
50319;SDS011;36226;53.464;9.852;2022-12-24T01:44:16;16.35;;;7.22;;
50319;SDS011;36226;53.464;9.852;2022-12-24T01:49:59;18.73;;;7.80;;
50319;SDS011;36226;53.464;9.852;2022-12-24T01:52:32;18.48;;;8.38;;
50319;SDS011;36226;53.464;9.852;2022-12-24T01:55:01;16.13;;;7.25;;
50319;SDS011;36226;53.464;9.852;2022-12-24T01:57:30;16.75;;;7.32;;
50319;SDS011;36226;53.464;9.852;2022-12-24T02:00:07;17.52;;;8.07;;
50319;SDS011;36226;53.464;9.852;2022-12-24T02:02:34;17.30;;;7.38;;
50319;SDS011;36226;53.464;9.852;2022-12-24T02:05:02;16.13;;;7.50;;
50319;SDS011;36226;53.464;9.852;2022-12-24T02:07:29;18.35;;;7.93;;
50319;SDS011;36226;53.464;9.852;2022-12-24T02:09:56;20.75;;;8.57;;
50319;SDS011;36226;53.464;9.852;2022-12-24T02:12:22;18.70;;;8.15;;
50319;SDS011;36226;53.464;9.852;2022-12-24T02:14:49;18.08;;;8.32;;
50319;SDS011;36226;53.464;9.852;2022-12-24T02:31:12;19.73;;;8.90;;
50319;SDS011;36226;53.464;9.852;2022-12-24T02:33:44;17.15;;;8.07;;
50319;SDS011;36226;53.464;9.852;2022-12-24T02:36:24;22.20;;;8.23;;
50319;SDS011;36226;53.464;9.852;2022-12-24T02:39:03;18.45;;;7.55;;
50319;SDS011;36226;53.464;9.852;2022-12-24T02:41:40;21.25;;;8.00;;
50319;SDS011;36226;53.464;9.852;2022-12-24T02:44:27;18.30;;;8.40;;
50319;SDS011;36226;53.464;9.852;2022-12-24T02:46:53;16.58;;;8.02;;
50319;SDS011;36226;53.464;9.852;2022-12-24T02:49:20;19.98;;;9.18;;
50319;SDS011;36226;53.464;9.852;2022-12-24T02:51:45;22.90;;;9.13;;
50319;SDS011;36226;53.464;9.852;2022-12-24T02:54:11;24.30;;;9.18;;
50319;SDS011;36226;53.464;9.852;2022-12-24T02:59:24;19.23;;;8.45;;
50319;SDS011;36226;53.464;9.852;2022-12-24T03:02:13;22.48;;;9.40;;
50319;SDS011;36226;53.464;9.852;2022-12-24T03:10:28;22.88;;;8.50;;
50319;SDS011;36226;53.464;9.852;2022-12-24T03:13:02;23.15;;;8.32;;
50319;SDS011;36226;53.464;9.852;2022-12-24T03:15:30;23.35;;;8.32;;
50319;SDS011;36226;53.464;9.852;2022-12-24T03:17:57;20.52;;;8.18;;
50319;SDS011;36226;53.464;9.852;2022-12-24T03:20:36;22.77;;;8.85;;
50319;SDS011;36226;53.464;9.852;2022-12-24T03:23:03;22.30;;;8.75;;
50319;SDS011;36226;53.464;9.852;2022-12-24T03:25:29;21.48;;;8.70;;
50319;SDS011;36226;53.464;9.852;2022-12-24T03:27:55;22.70;;;8.80;;
50319;SDS011;36226;53.464;9.852;2022-12-24T03:30:21;20.35;;;9.07;;
50319;SDS011;36226;53.464;9.852;2022-12-24T03:32:47;18.05;;;7.93;;
50319;SDS011;36226;53.464;9.852;2022-12-24T03:35:12;18.10;;;7.95;;
50319;SDS011;36226;53.464;9.852;2022-12-24T03:37:38;20.25;;;8.23;;
50319;SDS011;36226;53.464;9.852;2022-12-24T03:40:04;17.58;;;7.57;;
50319;SDS011;36226;53.464;9.852;2022-12-24T03:42:30;22.75;;;7.53;;
50319;SDS011;36226;53.464;9.852;2022-12-24T03:44:55;18.45;;;7.70;;
50319;SDS011;36226;53.464;9.852;2022-12-24T03:47:21;19.02;;;7.78;;
50319;SDS011;36226;53.464;9.852;2022-12-24T03:49:46;15.85;;;6.90;;
50319;SDS011;36226;53.464;9.852;2022-12-24T03:52:11;21.60;;;7.70;;
50319;SDS011;36226;53.464;9.852;2022-12-24T03:54:37;18.85;;;7.60;;
50319;SDS011;36226;53.464;9.852;2022-12-24T03:57:02;18.08;;;7.63;;
50319;SDS011;36226;53.464;9.852;2022-12-24T03:59:27;17.80;;;7.32;;
50319;SDS011;36226;53.464;9.852;2022-12-24T04:01:53;16.50;;;7.03;;
50319;SDS011;36226;53.464;9.852;2022-12-24T04:04:18;20.20;;;7.32;;
50319;SDS011;36226;53.464;9.852;2022-12-24T04:06:43;15.52;;;6.25;;
50319;SDS011;36226;53.464;9.852;2022-12-24T04:09:09;15.70;;;6.32;;
50319;SDS011;36226;53.464;9.852;2022-12-24T04:11:34;13.50;;;6.03;;
50319;SDS011;36226;53.464;9.852;2022-12-24T04:13:59;16.52;;;6.95;;
50319;SDS011;36226;53.464;9.852;2022-12-24T04:16:25;15.68;;;6.38;;
50319;SDS011;36226;53.464;9.852;2022-12-24T04:18:50;12.70;;;5.55;;
50319;SDS011;36226;53.464;9.852;2022-12-24T04:21:16;15.48;;;6.43;;
50319;SDS011;36226;53.464;9.852;2022-12-24T04:23:41;14.20;;;6.13;;
50319;SDS011;36226;53.464;9.852;2022-12-24T04:26:08;15.57;;;6.05;;
50319;SDS011;36226;53.464;9.852;2022-12-24T04:28:35;13.35;;;5.55;;
50319;SDS011;36226;53.464;9.852;2022-12-24T04:31:02;12.98;;;5.65;;
50319;SDS011;36226;53.464;9.852;2022-12-24T04:33:30;14.00;;;6.22;;
50319;SDS011;36226;53.464;9.852;2022-12-24T04:35:56;14.27;;;5.55;;
50319;SDS011;36226;53.464;9.852;2022-12-24T04:38:22;14.48;;;5.78;;
50319;SDS011;36226;53.464;9.852;2022-12-24T04:40:47;14.10;;;5.70;;
50319;SDS011;36226;53.464;9.852;2022-12-24T04:43:12;12.95;;;5.03;;
50319;SDS011;36226;53.464;9.852;2022-12-24T04:45:38;14.50;;;5.45;;
50319;SDS011;36226;53.464;9.852;2022-12-24T04:48:03;13.45;;;6.10;;
50319;SDS011;36226;53.464;9.852;2022-12-24T04:50:29;14.95;;;6.03;;
50319;SDS011;36226;53.464;9.852;2022-12-24T04:52:54;13.93;;;5.85;;
50319;SDS011;36226;53.464;9.852;2022-12-24T04:55:19;12.95;;;6.07;;
50319;SDS011;36226;53.464;9.852;2022-12-24T04:57:45;12.77;;;5.65;;
50319;SDS011;36226;53.464;9.852;2022-12-24T05:00:10;15.50;;;6.00;;
50319;SDS011;36226;53.464;9.852;2022-12-24T05:02:36;12.35;;;5.63;;
50319;SDS011;36226;53.464;9.852;2022-12-24T05:05:01;13.48;;;5.93;;
50319;SDS011;36226;53.464;9.852;2022-12-24T05:07:27;12.10;;;5.35;;
50319;SDS011;36226;53.464;9.852;2022-12-24T05:09:52;13.13;;;5.68;;
50319;SDS011;36226;53.464;9.852;2022-12-24T05:12:18;13.48;;;5.53;;
50319;SDS011;36226;53.464;9.852;2022-12-24T05:14:43;11.35;;;5.15;;
50319;SDS011;36226;53.464;9.852;2022-12-24T05:17:09;13.70;;;5.95;;
50319;SDS011;36226;53.464;9.852;2022-12-24T05:19:34;12.50;;;5.40;;
50319;SDS011;36226;53.464;9.852;2022-12-24T05:21:59;13.52;;;6.00;;
50319;SDS011;36226;53.464;9.852;2022-12-24T05:24:43;13.60;;;5.68;;
50319;SDS011;36226;53.464;9.852;2022-12-24T05:27:27;15.07;;;5.90;;
50319;SDS011;36226;53.464;9.852;2022-12-24T05:29:52;12.93;;;5.80;;
50319;SDS011;36226;53.464;9.852;2022-12-24T05:32:18;16.80;;;6.18;;
50319;SDS011;36226;53.464;9.852;2022-12-24T05:34:43;14.15;;;6.05;;
50319;SDS011;36226;53.464;9.852;2022-12-24T05:37:08;13.98;;;5.88;;
50319;SDS011;36226;53.464;9.852;2022-12-24T05:39:34;15.70;;;5.47;;
50319;SDS011;36226;53.464;9.852;2022-12-24T05:41:59;12.45;;;5.50;;
50319;SDS011;36226;53.464;9.852;2022-12-24T05:44:24;17.65;;;6.65;;
50319;SDS011;36226;53.464;9.852;2022-12-24T05:46:50;10.90;;;5.53;;
50319;SDS011;36226;53.464;9.852;2022-12-24T05:49:15;14.07;;;5.82;;
50319;SDS011;36226;53.464;9.852;2022-12-24T05:51:41;13.40;;;5.38;;
50319;SDS011;36226;53.464;9.852;2022-12-24T05:54:06;13.43;;;5.65;;
50319;SDS011;36226;53.464;9.852;2022-12-24T05:56:32;14.20;;;5.95;;
50319;SDS011;36226;53.464;9.852;2022-12-24T05:58:57;14.45;;;5.95;;
50319;SDS011;36226;53.464;9.852;2022-12-24T06:01:23;14.18;;;6.28;;
50319;SDS011;36226;53.464;9.852;2022-12-24T06:03:48;14.52;;;6.32;;
50319;SDS011;36226;53.464;9.852;2022-12-24T06:06:16;12.38;;;5.78;;
50319;SDS011;36226;53.464;9.852;2022-12-24T06:08:43;13.10;;;6.10;;
50319;SDS011;36226;53.464;9.852;2022-12-24T06:11:10;13.43;;;6.20;;
50319;SDS011;36226;53.464;9.852;2022-12-24T06:13:37;14.75;;;6.07;;
50319;SDS011;36226;53.464;9.852;2022-12-24T06:16:03;18.48;;;7.18;;
50319;SDS011;36226;53.464;9.852;2022-12-24T06:18:30;14.88;;;6.03;;
50319;SDS011;36226;53.464;9.852;2022-12-24T06:20:57;15.63;;;6.35;;
50319;SDS011;36226;53.464;9.852;2022-12-24T06:23:23;14.15;;;6.25;;
50319;SDS011;36226;53.464;9.852;2022-12-24T06:25:49;14.40;;;6.50;;
50319;SDS011;36226;53.464;9.852;2022-12-24T06:28:15;15.50;;;6.85;;
50319;SDS011;36226;53.464;9.852;2022-12-24T06:30:44;14.55;;;6.38;;
50319;SDS011;36226;53.464;9.852;2022-12-24T06:33:10;15.68;;;6.68;;
50319;SDS011;36226;53.464;9.852;2022-12-24T06:35:36;15.70;;;6.72;;
50319;SDS011;36226;53.464;9.852;2022-12-24T06:38:01;19.83;;;7.35;;
50319;SDS011;36226;53.464;9.852;2022-12-24T06:40:27;15.60;;;6.35;;
50319;SDS011;36226;53.464;9.852;2022-12-24T06:42:52;15.02;;;6.20;;
50319;SDS011;36226;53.464;9.852;2022-12-24T06:45:17;13.98;;;6.72;;
50319;SDS011;36226;53.464;9.852;2022-12-24T06:47:43;15.05;;;6.18;;
50319;SDS011;36226;53.464;9.852;2022-12-24T06:50:08;15.48;;;6.40;;
50319;SDS011;36226;53.464;9.852;2022-12-24T06:52:34;15.55;;;6.82;;
50319;SDS011;36226;53.464;9.852;2022-12-24T06:54:59;17.98;;;6.30;;
50319;SDS011;36226;53.464;9.852;2022-12-24T06:57:25;13.90;;;6.07;;
50319;SDS011;36226;53.464;9.852;2022-12-24T06:59:50;12.98;;;6.38;;
50319;SDS011;36226;53.464;9.852;2022-12-24T07:02:16;12.60;;;5.90;;
50319;SDS011;36226;53.464;9.852;2022-12-24T07:04:41;14.55;;;6.55;;
50319;SDS011;36226;53.464;9.852;2022-12-24T07:07:06;17.27;;;6.22;;
50319;SDS011;36226;53.464;9.852;2022-12-24T07:09:32;13.43;;;6.28;;
50319;SDS011;36226;53.464;9.852;2022-12-24T07:11:57;12.68;;;5.80;;
50319;SDS011;36226;53.464;9.852;2022-12-24T07:14:22;14.27;;;6.10;;
50319;SDS011;36226;53.464;9.852;2022-12-24T07:16:48;14.02;;;5.68;;
50319;SDS011;36226;53.464;9.852;2022-12-24T07:19:13;12.73;;;6.05;;
50319;SDS011;36226;53.464;9.852;2022-12-24T07:21:39;13.07;;;6.13;;
50319;SDS011;36226;53.464;9.852;2022-12-24T07:24:04;11.68;;;5.78;;
50319;SDS011;36226;53.464;9.852;2022-12-24T07:26:30;12.85;;;5.95;;
50319;SDS011;36226;53.464;9.852;2022-12-24T07:28:55;12.73;;;5.50;;
50319;SDS011;36226;53.464;9.852;2022-12-24T07:31:21;11.43;;;5.50;;
50319;SDS011;36226;53.464;9.852;2022-12-24T07:33:46;9.90;;;5.00;;
50319;SDS011;36226;53.464;9.852;2022-12-24T07:36:19;12.55;;;5.22;;
50319;SDS011;36226;53.464;9.852;2022-12-24T07:38:45;12.77;;;5.32;;
50319;SDS011;36226;53.464;9.852;2022-12-24T07:41:10;12.25;;;5.45;;
50319;SDS011;36226;53.464;9.852;2022-12-24T07:43:36;11.10;;;4.65;;
50319;SDS011;36226;53.464;9.852;2022-12-24T07:46:01;12.75;;;5.05;;
50319;SDS011;36226;53.464;9.852;2022-12-24T07:48:27;13.13;;;5.82;;
50319;SDS011;36226;53.464;9.852;2022-12-24T07:50:54;9.18;;;4.13;;
50319;SDS011;36226;53.464;9.852;2022-12-24T07:53:20;9.48;;;4.63;;
50319;SDS011;36226;53.464;9.852;2022-12-24T07:55:45;12.00;;;4.60;;
50319;SDS011;36226;53.464;9.852;2022-12-24T07:58:11;10.88;;;4.65;;
50319;SDS011;36226;53.464;9.852;2022-12-24T08:00:36;7.60;;;3.95;;
50319;SDS011;36226;53.464;9.852;2022-12-24T08:03:02;7.88;;;3.83;;
50319;SDS011;36226;53.464;9.852;2022-12-24T08:05:27;9.05;;;3.72;;
50319;SDS011;36226;53.464;9.852;2022-12-24T08:07:53;7.50;;;3.60;;
50319;SDS011;36226;53.464;9.852;2022-12-24T08:10:19;9.07;;;3.75;;
50319;SDS011;36226;53.464;9.852;2022-12-24T08:12:44;7.47;;;3.67;;
50319;SDS011;36226;53.464;9.852;2022-12-24T08:15:09;7.78;;;3.92;;
50319;SDS011;36226;53.464;9.852;2022-12-24T08:17:35;7.85;;;3.90;;
50319;SDS011;36226;53.464;9.852;2022-12-24T08:20:01;10.50;;;4.07;;
50319;SDS011;36226;53.464;9.852;2022-12-24T08:22:26;8.50;;;4.00;;
50319;SDS011;36226;53.464;9.852;2022-12-24T08:24:52;8.60;;;3.88;;
50319;SDS011;36226;53.464;9.852;2022-12-24T08:27:17;9.75;;;4.57;;
50319;SDS011;36226;53.464;9.852;2022-12-24T08:29:42;7.45;;;3.95;;
50319;SDS011;36226;53.464;9.852;2022-12-24T08:32:08;7.65;;;3.83;;
50319;SDS011;36226;53.464;9.852;2022-12-24T08:34:33;7.72;;;3.83;;
50319;SDS011;36226;53.464;9.852;2022-12-24T08:36:59;8.63;;;3.97;;
50319;SDS011;36226;53.464;9.852;2022-12-24T08:39:24;7.35;;;4.10;;
50319;SDS011;36226;53.464;9.852;2022-12-24T08:41:50;7.07;;;3.83;;
50319;SDS011;36226;53.464;9.852;2022-12-24T08:44:15;6.68;;;3.50;;
50319;SDS011;36226;53.464;9.852;2022-12-24T08:46:40;8.43;;;4.00;;
50319;SDS011;36226;53.464;9.852;2022-12-24T08:49:06;9.23;;;4.15;;
50319;SDS011;36226;53.464;9.852;2022-12-24T08:51:31;8.05;;;3.97;;
50319;SDS011;36226;53.464;9.852;2022-12-24T08:53:56;7.18;;;3.72;;
50319;SDS011;36226;53.464;9.852;2022-12-24T08:56:22;7.07;;;3.60;;
50319;SDS011;36226;53.464;9.852;2022-12-24T08:58:47;7.97;;;4.22;;
50319;SDS011;36226;53.464;9.852;2022-12-24T09:01:14;8.95;;;3.97;;
50319;SDS011;36226;53.464;9.852;2022-12-24T09:03:41;6.75;;;3.72;;
50319;SDS011;36226;53.464;9.852;2022-12-24T09:06:06;6.93;;;3.88;;
50319;SDS011;36226;53.464;9.852;2022-12-24T09:08:32;7.72;;;3.50;;
50319;SDS011;36226;53.464;9.852;2022-12-24T09:11:08;7.65;;;3.90;;
50319;SDS011;36226;53.464;9.852;2022-12-24T09:13:36;7.88;;;3.72;;
50319;SDS011;36226;53.464;9.852;2022-12-24T09:16:01;8.65;;;3.85;;
50319;SDS011;36226;53.464;9.852;2022-12-24T09:18:31;7.82;;;3.75;;
50319;SDS011;36226;53.464;9.852;2022-12-24T09:21:03;8.57;;;4.50;;
50319;SDS011;36226;53.464;9.852;2022-12-24T09:23:30;7.05;;;3.60;;
50319;SDS011;36226;53.464;9.852;2022-12-24T09:25:57;11.13;;;4.43;;
50319;SDS011;36226;53.464;9.852;2022-12-24T09:28:23;8.00;;;4.05;;
50319;SDS011;36226;53.464;9.852;2022-12-24T09:30:58;10.50;;;4.55;;
50319;SDS011;36226;53.464;9.852;2022-12-24T09:33:24;8.45;;;4.22;;
50319;SDS011;36226;53.464;9.852;2022-12-24T09:35:51;9.13;;;4.50;;
50319;SDS011;36226;53.464;9.852;2022-12-24T09:38:16;9.68;;;4.63;;
50319;SDS011;36226;53.464;9.852;2022-12-24T09:40:42;10.70;;;4.80;;
50319;SDS011;36226;53.464;9.852;2022-12-24T09:43:15;10.35;;;4.88;;
50319;SDS011;36226;53.464;9.852;2022-12-24T09:45:57;10.02;;;4.97;;
50319;SDS011;36226;53.464;9.852;2022-12-24T09:48:29;9.27;;;4.20;;
50319;SDS011;36226;53.464;9.852;2022-12-24T09:55:55;7.68;;;4.20;;
50319;SDS011;36226;53.464;9.852;2022-12-24T09:58:23;8.48;;;4.32;;
50319;SDS011;36226;53.464;9.852;2022-12-24T10:00:51;10.32;;;4.85;;
50319;SDS011;36226;53.464;9.852;2022-12-24T10:03:17;8.52;;;4.47;;
50319;SDS011;36226;53.464;9.852;2022-12-24T10:10:54;12.30;;;4.97;;
50319;SDS011;36226;53.464;9.852;2022-12-24T10:25:25;11.93;;;5.35;;
50319;SDS011;36226;53.464;9.852;2022-12-24T10:27:54;9.27;;;5.03;;
50319;SDS011;36226;53.464;9.852;2022-12-24T10:30:22;9.75;;;5.00;;
50319;SDS011;36226;53.464;9.852;2022-12-24T10:32:49;12.10;;;5.38;;
50319;SDS011;36226;53.464;9.852;2022-12-24T10:35:18;11.32;;;5.25;;
50319;SDS011;36226;53.464;9.852;2022-12-24T10:37:48;11.30;;;4.85;;
50319;SDS011;36226;53.464;9.852;2022-12-24T10:42:55;12.18;;;5.82;;
50319;SDS011;36226;53.464;9.852;2022-12-24T10:45:22;12.63;;;6.28;;
50319;SDS011;36226;53.464;9.852;2022-12-24T10:47:49;13.23;;;6.65;;
50319;SDS011;36226;53.464;9.852;2022-12-24T10:52:50;12.77;;;5.65;;
50319;SDS011;36226;53.464;9.852;2022-12-24T10:55:21;14.38;;;6.18;;
50319;SDS011;36226;53.464;9.852;2022-12-24T10:58:01;12.57;;;6.65;;
50319;SDS011;36226;53.464;9.852;2022-12-24T11:00:28;12.00;;;5.78;;
50319;SDS011;36226;53.464;9.852;2022-12-24T11:05:35;14.05;;;6.78;;
50319;SDS011;36226;53.464;9.852;2022-12-24T11:10:41;19.75;;;8.88;;
50319;SDS011;36226;53.464;9.852;2022-12-24T11:13:42;16.35;;;8.20;;
50319;SDS011;36226;53.464;9.852;2022-12-24T11:18:49;24.45;;;9.05;;
50319;SDS011;36226;53.464;9.852;2022-12-24T11:21:19;32.97;;;13.32;;
50319;SDS011;36226;53.464;9.852;2022-12-24T11:23:48;34.55;;;14.45;;
50319;SDS011;36226;53.464;9.852;2022-12-24T11:26:19;30.63;;;11.50;;
50319;SDS011;36226;53.464;9.852;2022-12-24T11:28:45;37.80;;;12.82;;
50319;SDS011;36226;53.464;9.852;2022-12-24T11:31:28;22.42;;;9.30;;
50319;SDS011;36226;53.464;9.852;2022-12-24T11:33:56;25.63;;;9.75;;
50319;SDS011;36226;53.464;9.852;2022-12-24T11:36:22;34.92;;;10.68;;
50319;SDS011;36226;53.464;9.852;2022-12-24T11:38:55;31.38;;;10.60;;
50319;SDS011;36226;53.464;9.852;2022-12-24T11:41:21;33.42;;;10.27;;
50319;SDS011;36226;53.464;9.852;2022-12-24T11:43:48;25.60;;;9.50;;
50319;SDS011;36226;53.464;9.852;2022-12-24T11:46:16;27.85;;;9.60;;
50319;SDS011;36226;53.464;9.852;2022-12-24T11:48:42;26.73;;;10.68;;
50319;SDS011;36226;53.464;9.852;2022-12-24T11:51:18;27.85;;;10.40;;
50319;SDS011;36226;53.464;9.852;2022-12-24T11:56:45;24.08;;;10.98;;
50319;SDS011;36226;53.464;9.852;2022-12-24T12:04:38;31.20;;;12.13;;
50319;SDS011;36226;53.464;9.852;2022-12-24T12:09:48;31.92;;;11.27;;
50319;SDS011;36226;53.464;9.852;2022-12-24T12:14:59;24.95;;;9.23;;
50319;SDS011;36226;53.464;9.852;2022-12-24T12:20:10;49.08;;;10.85;;
50319;SDS011;36226;53.464;9.852;2022-12-24T12:25:23;42.17;;;9.17;;
50319;SDS011;36226;53.464;9.852;2022-12-24T12:27:53;37.22;;;9.98;;
50319;SDS011;36226;53.464;9.852;2022-12-24T12:30:20;28.67;;;6.72;;
50319;SDS011;36226;53.464;9.852;2022-12-24T12:32:48;42.92;;;6.50;;
50319;SDS011;36226;53.464;9.852;2022-12-24T12:35:50;34.80;;;7.15;;
50319;SDS011;36226;53.464;9.852;2022-12-24T12:38:10;37.92;;;6.38;;
50319;SDS011;36226;53.464;9.852;2022-12-24T12:43:32;42.17;;;10.73;;
50319;SDS011;36226;53.464;9.852;2022-12-24T12:48:53;35.35;;;6.85;;
50319;SDS011;36226;53.464;9.852;2022-12-24T12:51:27;40.45;;;9.27;;
50319;SDS011;36226;53.464;9.852;2022-12-24T12:56:51;28.65;;;5.97;;
50319;SDS011;36226;53.464;9.852;2022-12-24T13:13:03;26.92;;;5.38;;
50319;SDS011;36226;53.464;9.852;2022-12-24T13:15:40;34.90;;;6.07;;
50319;SDS011;36226;53.464;9.852;2022-12-24T13:21:16;30.10;;;5.43;;
50319;SDS011;36226;53.464;9.852;2022-12-24T13:28:35;31.15;;;5.85;;
50319;SDS011;36226;53.464;9.852;2022-12-24T13:38:46;29.95;;;7.28;;
50319;SDS011;36226;53.464;9.852;2022-12-24T13:44:01;26.80;;;5.45;;
50319;SDS011;36226;53.464;9.852;2022-12-24T13:49:11;29.48;;;4.88;;
50319;SDS011;36226;53.464;9.852;2022-12-24T13:51:43;32.05;;;6.20;;
50319;SDS011;36226;53.464;9.852;2022-12-24T13:54:08;27.02;;;5.10;;
50319;SDS011;36226;53.464;9.852;2022-12-24T13:56:36;22.02;;;4.80;;
50319;SDS011;36226;53.464;9.852;2022-12-24T13:59:09;24.33;;;4.32;;
50319;SDS011;36226;53.464;9.852;2022-12-24T14:01:41;21.38;;;3.75;;
50319;SDS011;36226;53.464;9.852;2022-12-24T14:04:08;33.35;;;5.30;;
50319;SDS011;36226;53.464;9.852;2022-12-24T14:06:35;21.92;;;4.45;;
50319;SDS011;36226;53.464;9.852;2022-12-24T14:09:12;20.20;;;4.40;;
50319;SDS011;36226;53.464;9.852;2022-12-24T14:14:30;18.23;;;3.97;;
50319;SDS011;36226;53.464;9.852;2022-12-24T14:16:57;18.67;;;4.82;;
50319;SDS011;36226;53.464;9.852;2022-12-24T14:19:25;29.70;;;4.68;;
50319;SDS011;36226;53.464;9.852;2022-12-24T14:22:04;17.95;;;3.65;;
50319;SDS011;36226;53.464;9.852;2022-12-24T14:24:42;23.75;;;4.20;;
50319;SDS011;36226;53.464;9.852;2022-12-24T14:27:14;22.88;;;4.57;;
50319;SDS011;36226;53.464;9.852;2022-12-24T14:32:45;29.95;;;4.97;;
50319;SDS011;36226;53.464;9.852;2022-12-24T14:35:24;22.77;;;4.72;;
50319;SDS011;36226;53.464;9.852;2022-12-24T14:37:56;21.20;;;3.85;;
50319;SDS011;36226;53.464;9.852;2022-12-24T14:46:08;17.35;;;4.68;;
50319;SDS011;36226;53.464;9.852;2022-12-24T14:48:56;20.60;;;4.82;;
50319;SDS011;36226;53.464;9.852;2022-12-24T14:51:28;17.10;;;4.40;;
50319;SDS011;36226;53.464;9.852;2022-12-24T14:59:46;15.60;;;4.40;;
50319;SDS011;36226;53.464;9.852;2022-12-24T15:10:35;30.17;;;6.40;;
50319;SDS011;36226;53.464;9.852;2022-12-24T15:15:42;29.67;;;5.25;;
50319;SDS011;36226;53.464;9.852;2022-12-24T15:18:13;26.27;;;7.00;;
50319;SDS011;36226;53.464;9.852;2022-12-24T15:20:41;31.05;;;7.10;;
50319;SDS011;36226;53.464;9.852;2022-12-24T15:23:15;26.98;;;6.43;;
50319;SDS011;36226;53.464;9.852;2022-12-24T15:25:43;26.35;;;6.95;;
50319;SDS011;36226;53.464;9.852;2022-12-24T15:28:18;39.72;;;6.63;;
50319;SDS011;36226;53.464;9.852;2022-12-24T15:30:44;33.15;;;8.43;;
50319;SDS011;36226;53.464;9.852;2022-12-24T15:33:13;30.90;;;7.57;;
50319;SDS011;36226;53.464;9.852;2022-12-24T15:35:49;23.65;;;7.90;;
50319;SDS011;36226;53.464;9.852;2022-12-24T15:38:23;51.90;;;25.58;;
50319;SDS011;36226;53.464;9.852;2022-12-24T15:41:03;64.32;;;32.05;;
50319;SDS011;36226;53.464;9.852;2022-12-24T15:43:44;27.52;;;11.25;;
50319;SDS011;36226;53.464;9.852;2022-12-24T15:46:20;35.78;;;11.90;;
50319;SDS011;36226;53.464;9.852;2022-12-24T15:48:48;28.17;;;7.25;;
50319;SDS011;36226;53.464;9.852;2022-12-24T15:51:19;24.15;;;7.65;;
50319;SDS011;36226;53.464;9.852;2022-12-24T15:53:46;27.02;;;7.38;;
50319;SDS011;36226;53.464;9.852;2022-12-24T15:56:35;20.92;;;7.80;;
50319;SDS011;36226;53.464;9.852;2022-12-24T16:01:42;28.92;;;7.30;;
50319;SDS011;36226;53.464;9.852;2022-12-24T16:04:12;23.15;;;6.40;;
50319;SDS011;36226;53.464;9.852;2022-12-24T16:12:01;24.73;;;8.02;;
50319;SDS011;36226;53.464;9.852;2022-12-24T16:14:27;34.25;;;10.15;;
50319;SDS011;36226;53.464;9.852;2022-12-24T16:16:53;26.25;;;7.55;;
50319;SDS011;36226;53.464;9.852;2022-12-24T16:19:24;29.10;;;8.40;;
50319;SDS011;36226;53.464;9.852;2022-12-24T16:21:58;29.25;;;7.95;;
50319;SDS011;36226;53.464;9.852;2022-12-24T16:24:45;37.95;;;8.80;;
50319;SDS011;36226;53.464;9.852;2022-12-24T16:27:11;37.67;;;9.18;;
50319;SDS011;36226;53.464;9.852;2022-12-24T16:29:37;26.30;;;7.88;;
50319;SDS011;36226;53.464;9.852;2022-12-24T16:32:03;28.10;;;8.18;;
50319;SDS011;36226;53.464;9.852;2022-12-24T16:34:31;25.80;;;7.40;;
50319;SDS011;36226;53.464;9.852;2022-12-24T16:36:57;26.88;;;8.30;;
50319;SDS011;36226;53.464;9.852;2022-12-24T16:39:26;34.63;;;7.47;;
50319;SDS011;36226;53.464;9.852;2022-12-24T16:41:59;28.27;;;8.45;;
50319;SDS011;36226;53.464;9.852;2022-12-24T16:44:45;23.77;;;8.07;;
50319;SDS011;36226;53.464;9.852;2022-12-24T16:47:11;25.30;;;9.15;;
50319;SDS011;36226;53.464;9.852;2022-12-24T16:49:44;34.75;;;8.55;;
50319;SDS011;36226;53.464;9.852;2022-12-24T16:52:17;34.00;;;8.00;;
50319;SDS011;36226;53.464;9.852;2022-12-24T16:54:46;27.98;;;6.50;;
50319;SDS011;36226;53.464;9.852;2022-12-24T16:57:11;22.45;;;6.55;;
50319;SDS011;36226;53.464;9.852;2022-12-24T16:59:37;23.95;;;5.88;;
50319;SDS011;36226;53.464;9.852;2022-12-24T17:02:03;19.42;;;5.68;;
50319;SDS011;36226;53.464;9.852;2022-12-24T17:04:32;20.63;;;6.20;;
50319;SDS011;36226;53.464;9.852;2022-12-24T17:06:58;18.48;;;4.72;;
50319;SDS011;36226;53.464;9.852;2022-12-24T17:09:23;19.77;;;4.50;;
50319;SDS011;36226;53.464;9.852;2022-12-24T17:11:49;28.02;;;5.18;;
50319;SDS011;36226;53.464;9.852;2022-12-24T17:14:14;23.10;;;4.82;;
50319;SDS011;36226;53.464;9.852;2022-12-24T17:16:40;21.17;;;4.53;;
50319;SDS011;36226;53.464;9.852;2022-12-24T17:19:05;22.38;;;4.97;;
50319;SDS011;36226;53.464;9.852;2022-12-24T17:21:31;18.10;;;5.05;;